Wetterdaten: Woche 30.12.13 - 05.01.14 (KW1)
Datum Zeit Temperatur Luftfeuchte Luftdruck Niederschlag Windrichtung Sonnenschein Solar Wind
30.12.2013 00:00 0,3 C 96 % 1027,0 hPa 0,0 l/m N 0,00 h 0 W/m 0,1 km/h (0 Bft)
30.12.2013 01:00 0,4 C 96 % 1027,1 hPa 0,0 l/m W-SW 0,00 h 0 W/m 0,8 km/h (0 Bft)
30.12.2013 02:00 0,4 C 96 % 1027,3 hPa 0,0 l/m N 0,00 h 0 W/m 0,5 km/h (0 Bft)
30.12.2013 03:00 -0,6 C 96 % 1027,5 hPa 0,0 l/m W-SW 0,00 h 0 W/m 0,9 km/h (0 Bft)
30.12.2013 04:00 -1,1 C 96 % 1028,0 hPa 0,0 l/m N-NW 0,00 h 0 W/m 6,0 km/h (2 Bft)
30.12.2013 05:00 -1,1 C 97 % 1028,3 hPa 0,0 l/m N-NW 0,00 h 0 W/m 2,5 km/h (1 Bft)
30.12.2013 06:00 -1,0 C 97 % 1028,5 hPa 0,0 l/m N 0,00 h 0 W/m 1,2 km/h (1 Bft)
30.12.2013 07:00 -0,9 C 97 % 1028,5 hPa 0,0 l/m N 0,00 h 0 W/m 0,9 km/h (0 Bft)
30.12.2013 08:00 -0,7 C 98 % 1028,6 hPa 0,0 l/m N 0,00 h 12 W/m 0,3 km/h (0 Bft)
30.12.2013 09:00 -0,3 C 98 % 1028,4 hPa 0,0 l/m N 0,00 h 32 W/m 0,1 km/h (0 Bft)
30.12.2013 10:00 0,3 C 98 % 1027,9 hPa 0,0 l/m N-NW 0,33 h 129 W/m 1,7 km/h (1 Bft)
30.12.2013 11:00 1,5 C 98 % 1027,3 hPa 0,0 l/m NO 1,00 h 278 W/m 4,9 km/h (1 Bft)
30.12.2013 12:00 3,5 C 88 % 1026,7 hPa 0,0 l/m NO 1,00 h 384 W/m 5,6 km/h (1 Bft)
30.12.2013 13:00 4,0 C 86 % 1026,0 hPa 0,0 l/m N-NO 0,58 h 207 W/m 9,5 km/h (2 Bft)
30.12.2013 14:00 3,3 C 88 % 1025,4 hPa 0,0 l/m N 0,92 h 210 W/m 7,6 km/h (2 Bft)
30.12.2013 15:00 2,5 C 90 % 1025,2 hPa 0,0 l/m N 0,92 h 94 W/m 5,5 km/h (1 Bft)
30.12.2013 16:00 0,6 C 94 % 1025,1 hPa 0,0 l/m N-NW 0,00 h 12 W/m 6,5 km/h (2 Bft)
30.12.2013 17:00 -0,5 C 97 % 1025,1 hPa 0,0 l/m N-NW 0,00 h 0 W/m 5,2 km/h (1 Bft)
30.12.2013 18:00 -0,7 C 97 % 1024,9 hPa 0,0 l/m N-NW 0,00 h 0 W/m 1,7 km/h (1 Bft)
30.12.2013 19:00 -1,0 C 98 % 1024,8 hPa 0,0 l/m N-NW 0,00 h 0 W/m 3,9 km/h (1 Bft)
30.12.2013 20:00 -0,7 C 98 % 1025,1 hPa 0,0 l/m N-NW 0,00 h 0 W/m 4,7 km/h (1 Bft)
30.12.2013 21:00 -0,5 C 99 % 1025,2 hPa 0,0 l/m N 0,00 h 0 W/m 1,6 km/h (1 Bft)
30.12.2013 22:00 -0,6 C 99 % 1025,3 hPa 0,0 l/m W-NW 0,00 h 0 W/m 2,8 km/h (1 Bft)
30.12.2013 23:00 -0,8 C 99 % 1025,0 hPa 0,0 l/m N 0,00 h 0 W/m 3,2 km/h (1 Bft)
31.12.2013 00:00 -0,6 C 99 % 1024,7 hPa 0,0 l/m W-NW 0,00 h 0 W/m 2,9 km/h (1 Bft)
31.12.2013 01:00 -0,5 C 99 % 1024,1 hPa 0,0 l/m W 0,00 h 0 W/m 3,7 km/h (1 Bft)
31.12.2013 02:00 -0,6 C 99 % 1023,9 hPa 0,0 l/m W-SW 0,00 h 0 W/m 6,0 km/h (2 Bft)
31.12.2013 03:00 -0,9 C 99 % 1023,6 hPa 0,0 l/m W-SW 0,00 h 0 W/m 5,2 km/h (1 Bft)
31.12.2013 04:00 -1,0 C 99 % 1023,1 hPa 0,0 l/m N 0,00 h 0 W/m 1,3 km/h (1 Bft)
31.12.2013 05:00 -1,2 C 99 % 1022,7 hPa 0,0 l/m N 0,00 h 0 W/m 1,1 km/h (0 Bft)
31.12.2013 06:00 -1,2 C 99 % 1022,3 hPa 0,0 l/m N 0,00 h 0 W/m 2,0 km/h (1 Bft)
31.12.2013 07:00 -1,2 C 99 % 1021,9 hPa 0,0 l/m N 0,00 h 0 W/m 1,6 km/h (1 Bft)
31.12.2013 08:00 -1,4 C 99 % 1021,7 hPa 0,0 l/m N 0,00 h 9 W/m 0,5 km/h (0 Bft)
31.12.2013 09:00 -1,8 C 99 % 1021,4 hPa 0,0 l/m N 0,00 h 29 W/m 1,1 km/h (0 Bft)
31.12.2013 10:00 -1,4 C 99 % 1021,2 hPa 0,0 l/m N 0,83 h 165 W/m 1,1 km/h (0 Bft)
31.12.2013 11:00 0,3 C 97 % 1020,6 hPa 0,2 l/m W-SW 1,00 h 273 W/m 3,3 km/h (1 Bft)
31.12.2013 12:00 3,2 C 76 % 1019,5 hPa 0,0 l/m W-SW 1,00 h 324 W/m 6,1 km/h (2 Bft)
31.12.2013 13:00 4,5 C 64 % 1018,8 hPa 0,0 l/m SW 1,00 h 302 W/m 8,0 km/h (2 Bft)
31.12.2013 14:00 4,7 C 56 % 1018,1 hPa 0,0 l/m SW 1,00 h 223 W/m 5,3 km/h (1 Bft)
31.12.2013 15:00 4,1 C 60 % 1017,6 hPa 0,0 l/m SW 0,67 h 93 W/m 3,7 km/h (1 Bft)
31.12.2013 16:00 1,2 C 75 % 1017,1 hPa 0,0 l/m N 0,08 h 14 W/m 0,0 km/h (0 Bft)
31.12.2013 17:00 -0,3 C 80 % 1016,8 hPa 0,0 l/m N 0,00 h 0 W/m 0,8 km/h (0 Bft)
31.12.2013 18:00 -1,0 C 84 % 1016,6 hPa 0,0 l/m N 0,00 h 0 W/m 0,8 km/h (0 Bft)
31.12.2013 19:00 -1,6 C 88 % 1016,2 hPa 0,0 l/m N 0,00 h 0 W/m 0,0 km/h (0 Bft)
31.12.2013 20:00 -2,2 C 90 % 1016,2 hPa 0,0 l/m N 0,00 h 0 W/m 0,1 km/h (0 Bft)
31.12.2013 21:00 -2,7 C 90 % 1016,2 hPa 0,0 l/m N 0,00 h 0 W/m 0,0 km/h (0 Bft)
31.12.2013 22:00 -3,0 C 91 % 1016,0 hPa 0,0 l/m N 0,00 h 0 W/m 0,0 km/h (0 Bft)
31.12.2013 23:00 -3,4 C 92 % 1015,8 hPa 0,0 l/m N 0,00 h 0 W/m 0,0 km/h (0 Bft)
01.01.2014 00:00 -3,6 C 93 % 1015,6 hPa 0,0 l/m N 0,00 h 0 W/m 0,1 km/h (0 Bft)
01.01.2014 01:00 -3,7 C 93 % 1016,1 hPa 0,0 l/m N 0,00 h 0 W/m 1,1 km/h (0 Bft)
01.01.2014 02:00 -3,6 C 94 % 1016,6 hPa 0,0 l/m SW 0,00 h 0 W/m 4,8 km/h (1 Bft)
01.01.2014 03:00 -3,4 C 95 % 1017,0 hPa 0,0 l/m S 0,00 h 0 W/m 7,0 km/h (2 Bft)
01.01.2014 04:00 -2,7 C 96 % 1016,8 hPa 0,0 l/m S-SO 0,00 h 0 W/m 7,6 km/h (2 Bft)
01.01.2014 05:00 -1,7 C 97 % 1016,7 hPa 0,0 l/m S-SW 0,00 h 0 W/m 10,1 km/h (2 Bft)
01.01.2014 06:00 -1,1 C 96 % 1016,9 hPa 0,0 l/m S-SO 0,00 h 0 W/m 7,1 km/h (2 Bft)
01.01.2014 07:00 -0,9 C 95 % 1017,0 hPa 0,0 l/m SO 0,00 h 0 W/m 5,7 km/h (1 Bft)
01.01.2014 08:00 -0,4 C 95 % 1017,3 hPa 0,0 l/m SO 0,00 h 8 W/m 3,2 km/h (1 Bft)
01.01.2014 09:00 0,2 C 96 % 1017,6 hPa 0,0 l/m SO 0,00 h 33 W/m 2,1 km/h (1 Bft)
01.01.2014 10:00 0,9 C 96 % 1017,6 hPa 0,0 l/m S-SW 0,00 h 72 W/m 7,5 km/h (2 Bft)
01.01.2014 11:00 2,3 C 92 % 1017,0 hPa 0,0 l/m S-SW 0,75 h 215 W/m 12,6 km/h (3 Bft)
01.01.2014 12:00 4,8 C 84 % 1015,9 hPa 0,0 l/m SW 0,92 h 252 W/m 10,9 km/h (2 Bft)
01.01.2014 13:00 5,9 C 78 % 1015,2 hPa 0,0 l/m S-SW 1,00 h 258 W/m 8,6 km/h (2 Bft)
01.01.2014 14:00 6,3 C 76 % 1014,3 hPa 0,0 l/m S-SW 1,00 h 190 W/m 6,1 km/h (2 Bft)
01.01.2014 15:00 5,6 C 79 % 1014,0 hPa 0,0 l/m S-SW 0,67 h 82 W/m 4,1 km/h (1 Bft)
01.01.2014 16:00 3,2 C 87 % 1013,8 hPa 0,0 l/m N 0,08 h 15 W/m 0,7 km/h (0 Bft)
01.01.2014 17:00 1,6 C 91 % 1013,2 hPa 0,0 l/m S-SW 0,00 h 0 W/m 1,3 km/h (1 Bft)
01.01.2014 18:00 0,8 C 93 % 1013,0 hPa 0,0 l/m N 0,00 h 0 W/m 0,7 km/h (0 Bft)
01.01.2014 19:00 0,2 C 93 % 1012,2 hPa 0,0 l/m N 0,00 h 0 W/m 0,9 km/h (0 Bft)
01.01.2014 20:00 -0,3 C 94 % 1011,6 hPa 0,0 l/m N 0,00 h 0 W/m 0,9 km/h (0 Bft)
01.01.2014 21:00 -0,1 C 95 % 1011,1 hPa 0,0 l/m W-SW 0,00 h 0 W/m 5,3 km/h (1 Bft)
01.01.2014 22:00 0,5 C 96 % 1010,4 hPa 0,0 l/m W-SW 0,00 h 0 W/m 2,9 km/h (1 Bft)
01.01.2014 23:00 0,2 C 96 % 1009,6 hPa 0,0 l/m N 0,00 h 0 W/m 0,8 km/h (0 Bft)
02.01.2014 00:00 -0,4 C 96 % 1008,8 hPa 0,0 l/m W-SW 0,00 h 0 W/m 2,1 km/h (1 Bft)
02.01.2014 01:00 -0,5 C 96 % 1008,1 hPa 0,0 l/m N 0,00 h 0 W/m 1,1 km/h (0 Bft)
02.01.2014 02:00 -0,8 C 96 % 1008,1 hPa 0,0 l/m N 0,00 h 0 W/m 1,7 km/h (1 Bft)
02.01.2014 03:00 -1,1 C 96 % 1007,8 hPa 0,0 l/m N 0,00 h 0 W/m 0,9 km/h (0 Bft)
02.01.2014 04:00 -1,1 C 97 % 1007,3 hPa 0,0 l/m N 0,00 h 0 W/m 0,5 km/h (0 Bft)
02.01.2014 05:00 -1,4 C 97 % 1007,3 hPa 0,0 l/m N 0,00 h 0 W/m 0,4 km/h (0 Bft)
02.01.2014 06:00 -1,4 C 97 % 1006,8 hPa 0,0 l/m N 0,00 h 0 W/m 0,8 km/h (0 Bft)
02.01.2014 07:00 -1,2 C 97 % 1007,1 hPa 0,0 l/m N 0,00 h 0 W/m 0,8 km/h (0 Bft)
02.01.2014 08:00 -0,8 C 98 % 1008,2 hPa 0,0 l/m N 0,00 h 5 W/m 0,5 km/h (0 Bft)
02.01.2014 09:00 -0,4 C 98 % 1009,1 hPa 0,2 l/m W-SW 0,00 h 14 W/m 3,7 km/h (1 Bft)
02.01.2014 10:00 0,2 C 98 % 1009,5 hPa 0,4 l/m W-SW 0,00 h 30 W/m 2,1 km/h (1 Bft)
02.01.2014 11:00 0,8 C 98 % 1009,2 hPa 0,2 l/m W-SW 0,00 h 63 W/m 5,6 km/h (1 Bft)
02.01.2014 12:00 2,1 C 98 % 1009,2 hPa 0,0 l/m SW 0,00 h 93 W/m 12,9 km/h (3 Bft)
02.01.2014 13:00 2,6 C 97 % 1009,4 hPa 0,0 l/m SW 0,00 h 81 W/m 13,3 km/h (3 Bft)
02.01.2014 14:00 2,9 C 96 % 1009,5 hPa 0,0 l/m SW 0,00 h 39 W/m 10,8 km/h (2 Bft)
02.01.2014 15:00 3,2 C 95 % 1009,8 hPa 0,0 l/m SW 0,25 h 56 W/m 9,0 km/h (2 Bft)
02.01.2014 16:00 3,1 C 95 % 1010,3 hPa 0,0 l/m SW 0,00 h 8 W/m 9,8 km/h (2 Bft)
02.01.2014 17:00 4,4 C 93 % 1010,8 hPa 0,0 l/m W-SW 0,00 h 0 W/m 16,4 km/h (3 Bft)
02.01.2014 18:00 4,4 C 90 % 1011,5 hPa 0,0 l/m SW 0,00 h 0 W/m 11,7 km/h (2 Bft)
02.01.2014 19:00 3,1 C 93 % 1012,1 hPa 0,0 l/m SW 0,00 h 0 W/m 12,9 km/h (3 Bft)
02.01.2014 20:00 3,0 C 95 % 1012,3 hPa 0,0 l/m SW 0,00 h 0 W/m 12,8 km/h (3 Bft)
02.01.2014 21:00 3,4 C 96 % 1012,7 hPa 0,0 l/m SW 0,00 h 0 W/m 14,9 km/h (3 Bft)
02.01.2014 22:00 3,5 C 95 % 1013,0 hPa 0,0 l/m SW 0,00 h 0 W/m 6,8 km/h (2 Bft)
02.01.2014 23:00 2,3 C 94 % 1013,3 hPa 0,0 l/m SW 0,00 h 0 W/m 1,5 km/h (1 Bft)
03.01.2014 00:00 1,1 C 94 % 1013,2 hPa 0,0 l/m N 0,00 h 0 W/m 0,3 km/h (0 Bft)
03.01.2014 01:00 0,2 C 94 % 1013,1 hPa 0,0 l/m N 0,00 h 0 W/m 0,3 km/h (0 Bft)
03.01.2014 02:00 -0,5 C 95 % 1013,1 hPa 0,0 l/m N 0,00 h 0 W/m 0,0 km/h (0 Bft)
03.01.2014 03:00 -1,2 C 95 % 1013,1 hPa 0,0 l/m N 0,00 h 0 W/m 0,1 km/h (0 Bft)
03.01.2014 04:00 -1,4 C 96 % 1013,1 hPa 0,0 l/m N 0,00 h 0 W/m 0,1 km/h (0 Bft)
03.01.2014 05:00 -1,6 C 96 % 1012,9 hPa 0,0 l/m N 0,00 h 0 W/m 0,3 km/h (0 Bft)
03.01.2014 06:00 -1,8 C 96 % 1012,8 hPa 0,0 l/m N 0,00 h 0 W/m 0,4 km/h (0 Bft)
03.01.2014 07:00 -1,8 C 97 % 1012,9 hPa 0,0 l/m N 0,00 h 0 W/m 0,3 km/h (0 Bft)
03.01.2014 08:00 -1,8 C 97 % 1013,0 hPa 0,0 l/m N 0,00 h 17 W/m 0,7 km/h (0 Bft)
03.01.2014 09:00 -1,2 C 97 % 1013,2 hPa 0,0 l/m N 0,00 h 48 W/m 0,7 km/h (0 Bft)
03.01.2014 10:00 -0,0 C 98 % 1013,6 hPa 0,0 l/m SW 0,08 h 92 W/m 3,1 km/h (1 Bft)
03.01.2014 11:00 2,2 C 95 % 1014,1 hPa 0,0 l/m SW 0,17 h 148 W/m 12,5 km/h (3 Bft)
03.01.2014 12:00 6,2 C 80 % 1014,2 hPa 0,0 l/m W-SW 0,00 h 72 W/m 29,4 km/h (5 Bft)
03.01.2014 13:00 6,5 C 85 % 1014,2 hPa 0,4 l/m W-SW 0,00 h 26 W/m 32,1 km/h (5 Bft)
03.01.2014 14:00 6,0 C 91 % 1014,0 hPa 0,2 l/m SW 0,00 h 59 W/m 14,4 km/h (3 Bft)
03.01.2014 15:00 4,7 C 92 % 1014,0 hPa 0,0 l/m SW 0,00 h 55 W/m 14,4 km/h (3 Bft)
03.01.2014 16:00 4,4 C 91 % 1014,0 hPa 0,0 l/m SW 0,00 h 19 W/m 9,2 km/h (2 Bft)
03.01.2014 17:00 4,6 C 89 % 1014,3 hPa 0,0 l/m W-SW 0,00 h 0 W/m 11,4 km/h (2 Bft)
03.01.2014 18:00 5,9 C 82 % 1014,7 hPa 0,0 l/m SW 0,00 h 0 W/m 18,6 km/h (3 Bft)
03.01.2014 19:00 6,1 C 88 % 1015,3 hPa 0,0 l/m SW 0,00 h 0 W/m 24,3 km/h (4 Bft)
03.01.2014 20:00 4,8 C 87 % 1015,9 hPa 0,0 l/m SW 0,00 h 0 W/m 17,6 km/h (3 Bft)
03.01.2014 21:00 5,1 C 91 % 1015,8 hPa 0,0 l/m SW 0,00 h 0 W/m 19,3 km/h (3 Bft)
03.01.2014 22:00 5,7 C 89 % 1016,0 hPa 0,0 l/m W-SW 0,00 h 0 W/m 11,0 km/h (2 Bft)
03.01.2014 23:00 5,9 C 88 % 1016,4 hPa 0,0 l/m W-SW 0,00 h 0 W/m 13,2 km/h (3 Bft)
04.01.2014 00:00 6,6 C 86 % 1016,2 hPa 0,0 l/m W-SW 0,00 h 0 W/m 11,2 km/h (2 Bft)
04.01.2014 01:00 5,9 C 87 % 1016,1 hPa 0,0 l/m W-SW 0,00 h 0 W/m 3,7 km/h (1 Bft)
04.01.2014 02:00 4,4 C 88 % 1015,9 hPa 0,0 l/m N 0,00 h 0 W/m 1,6 km/h (1 Bft)
04.01.2014 03:00 3,7 C 92 % 1015,4 hPa 0,0 l/m W-SW 0,00 h 0 W/m 2,0 km/h (1 Bft)
04.01.2014 04:00 3,4 C 93 % 1014,8 hPa 0,0 l/m N 0,00 h 0 W/m 1,2 km/h (1 Bft)
04.01.2014 05:00 3,0 C 94 % 1013,8 hPa 0,0 l/m N 0,00 h 0 W/m 1,5 km/h (1 Bft)
04.01.2014 06:00 2,7 C 95 % 1013,1 hPa 0,0 l/m W-SW 0,00 h 0 W/m 1,5 km/h (1 Bft)
04.01.2014 07:00 2,7 C 95 % 1012,0 hPa 0,0 l/m NW 0,00 h 0 W/m 2,3 km/h (1 Bft)
04.01.2014 08:00 3,0 C 96 % 1011,0 hPa 0,0 l/m N-NW 0,00 h 7 W/m 6,4 km/h (2 Bft)
04.01.2014 09:00 3,3 C 97 % 1009,6 hPa 0,0 l/m NW 0,00 h 20 W/m 7,2 km/h (2 Bft)
04.01.2014 10:00 3,9 C 97 % 1008,5 hPa 0,0 l/m NW 0,00 h 22 W/m 4,3 km/h (1 Bft)
04.01.2014 11:00 4,3 C 96 % 1006,7 hPa 0,2 l/m N 0,00 h 28 W/m 4,8 km/h (1 Bft)
04.01.2014 12:00 4,5 C 96 % 1005,3 hPa 0,6 l/m N-NW 0,00 h 23 W/m 2,7 km/h (1 Bft)
04.01.2014 13:00 4,8 C 97 % 1003,4 hPa 1,2 l/m N-NW 0,00 h 23 W/m 2,7 km/h (1 Bft)
04.01.2014 14:00 4,9 C 97 % 1002,8 hPa 1,0 l/m NW 0,00 h 12 W/m 6,0 km/h (2 Bft)
04.01.2014 15:00 4,7 C 97 % 1002,6 hPa 2,0 l/m N-NW 0,00 h 10 W/m 8,2 km/h (2 Bft)
04.01.2014 16:00 4,6 C 98 % 1002,3 hPa 1,6 l/m W 0,00 h 5 W/m 5,2 km/h (1 Bft)
04.01.2014 17:00 4,7 C 98 % 1002,5 hPa 3,0 l/m W-SW 0,00 h 0 W/m 9,4 km/h (2 Bft)
04.01.2014 18:00 4,4 C 98 % 1002,4 hPa 1,6 l/m S-SW 0,00 h 0 W/m 14,5 km/h (3 Bft)
04.01.2014 19:00 4,3 C 99 % 1002,4 hPa 0,2 l/m SW 0,00 h 0 W/m 17,6 km/h (3 Bft)
04.01.2014 20:00 4,4 C 99 % 1002,1 hPa 0,0 l/m SW 0,00 h 0 W/m 16,0 km/h (3 Bft)
04.01.2014 21:00 4,1 C 99 % 1001,3 hPa 0,0 l/m S-SW 0,00 h 0 W/m 3,3 km/h (1 Bft)
04.01.2014 22:00 3,4 C 98 % 1000,3 hPa 0,0 l/m N 0,00 h 0 W/m 1,5 km/h (1 Bft)
04.01.2014 23:00 2,0 C 98 % 999,8 hPa 0,2 l/m N 0,00 h 0 W/m 1,2 km/h (1 Bft)
05.01.2014 00:00 1,5 C 98 % 999,6 hPa 0,0 l/m NW 0,00 h 0 W/m 3,2 km/h (1 Bft)
05.01.2014 01:00 1,8 C 99 % 999,3 hPa 0,0 l/m NW 0,00 h 0 W/m 1,2 km/h (1 Bft)
05.01.2014 02:00 2,1 C 99 % 1000,2 hPa 0,0 l/m NW 0,00 h 0 W/m 2,3 km/h (1 Bft)
05.01.2014 03:00 1,9 C 99 % 1001,4 hPa 0,0 l/m SW 0,00 h 0 W/m 4,1 km/h (1 Bft)
05.01.2014 04:00 2,4 C 99 % 1002,6 hPa 0,0 l/m W-SW 0,00 h 0 W/m 12,2 km/h (2 Bft)
05.01.2014 05:00 3,7 C 99 % 1003,8 hPa 0,0 l/m W-SW 0,00 h 0 W/m 25,7 km/h (4 Bft)
05.01.2014 06:00 3,3 C 98 % 1005,4 hPa 0,8 l/m W-SW 0,00 h 0 W/m 23,5 km/h (4 Bft)
05.01.2014 07:00 3,2 C 98 % 1006,8 hPa 0,8 l/m W-SW 0,00 h 0 W/m 17,2 km/h (3 Bft)
05.01.2014 08:00 3,3 C 97 % 1008,0 hPa 0,4 l/m W-SW 0,00 h 7 W/m 20,1 km/h (4 Bft)
05.01.2014 09:00 3,3 C 97 % 1009,0 hPa 0,4 l/m W-SW 0,00 h 23 W/m 17,3 km/h (3 Bft)
05.01.2014 10:00 3,4 C 97 % 1009,9 hPa 0,2 l/m W-SW 0,00 h 31 W/m 16,8 km/h (3 Bft)
05.01.2014 11:00 3,6 C 97 % 1010,7 hPa 0,0 l/m W-SW 0,00 h 43 W/m 12,9 km/h (3 Bft)
05.01.2014 12:00 4,0 C 97 % 1010,9 hPa 0,0 l/m W-SW 0,00 h 91 W/m 15,0 km/h (3 Bft)
05.01.2014 13:00 4,5 C 94 % 1011,0 hPa 0,0 l/m W-SW 0,08 h 114 W/m 15,7 km/h (3 Bft)
05.01.2014 14:00 4,7 C 90 % 1011,6 hPa 0,0 l/m W-SW 0,00 h 98 W/m 14,0 km/h (3 Bft)
05.01.2014 15:00 4,6 C 89 % 1012,4 hPa 0,0 l/m W-SW 0,17 h 55 W/m 10,1 km/h (2 Bft)
05.01.2014 16:00 4,3 C 86 % 1013,3 hPa 0,0 l/m W-SW 0,42 h 20 W/m 8,7 km/h (2 Bft)
05.01.2014 17:00 3,4 C 85 % 1014,2 hPa 0,0 l/m W 0,00 h 0 W/m 4,4 km/h (1 Bft)
05.01.2014 18:00 2,0 C 89 % 1014,8 hPa 0,0 l/m W 0,00 h 0 W/m 3,6 km/h (1 Bft)
05.01.2014 19:00 0,9 C 89 % 1015,5 hPa 0,0 l/m N 0,00 h 0 W/m 0,0 km/h (0 Bft)
05.01.2014 20:00 -0,3 C 91 % 1015,7 hPa 0,0 l/m N 0,00 h 0 W/m 0,1 km/h (0 Bft)
05.01.2014 21:00 -1,0 C 92 % 1015,4 hPa 0,0 l/m N 0,00 h 0 W/m 0,1 km/h (0 Bft)
05.01.2014 22:00 -1,4 C 94 % 1014,9 hPa 0,0 l/m N 0,00 h 0 W/m 0,0 km/h (0 Bft)
05.01.2014 23:00 -1,8 C 94 % 1015,3 hPa 0,0 l/m N 0,00 h 0 W/m 0,1 km/h (0 Bft)
Min-Datum _ 01.01.14 31.12.13 05.01.14 - - - - 30.12.13
_ Min-Zeit 01:30 14:35 01:10 - - - - 00:00
Minimum _ -3,8 C 53 % 999,1 hPa - - - - 0,0 km/h (0 Bft)
Max-Datum _ 03.01.14 05.01.14 30.12.13 04.01.14 - 30.12.13 30.12.13 03.01.14
_ Max-Zeit 13:50 04:35 08:35 17:15 - 10:20 12:55 13:20
Maximum _ 6,7 C 100 % 1028,7 hPa 3,0 l/m - 0,08 h 427 W/m 43,5 km/h
W-SW (6 Bft)
Durchschnitt _ 1,5 C 93 % 1014,5 hPa #15,8 l/m SW #15:55 h 87 W/m 5,9 km/h (2 Bft)